Windsor Heights, Iowa
Current Conditions -  °F | °C
As of 12:54 AM on Wednesday 22 Oct 2014 (Local Time) from KDSM Reporting Station
Clear Clear  
Wind Chill: 50°   Ceiling: Unl
Heat Index: 50°   Visibility: 10mi
Dew Point: 39°   Wind: 9mph
Humidity: 66%   Direction: 120°ESE
Pressure: 30.18"   Gusts: NA
Location:  41.5811°N, 93.6759°W
Report Text: KDSM 220554Z 12008KT 10SM CLR 10/04 A3018 RMK AO2 SLP219 T01000039 10156 20100 401940061 51006
Loading
Personal Weather Stations






























Interactive Weather Map
Tropical Storm Tracking
New forecast layout! Learn more

10-Day Weather Forecast

Advertisements
Track Severe Weather on mobile